CheckWX is a tool to help pilots better visualize weather data.  It is not intended as a substitute for an official pre-flight weather briefing.

00:45:19 UTC

KORD TAF
Chicago O'hare International Airport
Chicago, Illinois, USA
KORD 202337Z 2100/2206 03009KT P6SM SKC FM210200 VRB03KT P6SM SKC FM211400 19011KT P6SM SCT200

Apr-21@
00:00 UTC

Apr-21 @ 00:00 UTC

Apr-21@
02:00 UTC

Apr-21 @ 02:00 UTC

KORD 202337Z 2100/2206 03009KT P6SM SKC
Wind
  • 030° at 9 KTS
Cloud Levels
  • Clear skies

Apr-21@
02:00 UTC

Apr-21 @ 02:00 UTC

Apr-21@
14:00 UTC

Apr-21 @ 14:00 UTC

FM210200 VRB03KT P6SM SKC

From

From Standard forecast or significant change

Wind
  • Variable at 3 KTS
Cloud Levels
  • Clear skies

Apr-21@
14:00 UTC

Apr-21 @ 14:00 UTC

Apr-22@
06:00 UTC

Apr-22 @ 06:00 UTC

FM211400 19011KT P6SM SCT200

From

From Standard forecast or significant change

Wind
  • 190° at 11 KTS
Cloud Levels
  • Scattered at 20,000' AGL